Flight Track Log - Related Links

Times and Time Zones

All times are in EDT time to prevent confusion due to time zone crossing. See the ASH3770 flight status page for this flight to view local times or setup timezone preferences in your user account.

Time Position Orientation Groundspeed Altitude Reporting Facility
EDT Latitude Longitude Course Direction KTS MPH feet Rate Location/Type
Thu 05:15:02 PM 36.8364 -76.2667 221° Southwest 221 254 4,000  Level Washington Center
Thu 05:16:00 PM 36.8256 -76.3261 257° West 236 272 4,600 1,692 Climbing Washington Center
Thu 05:16:59 PM 36.8147 -76.4117 261° West 246 283 7,300 2,874 Climbing Washington Center
Thu 05:17:00 PM 37.0921 -76.6160 300° West  Level FlightAware Approximate
Thu 05:17:59 PM 36.8203 -76.5025 274° West 260 299 10,300  Level Washington Center
Thu 05:18:00 PM 37.1412 -76.7238 300° West  Level FlightAware Approximate
Thu 05:19:00 PM 37.1917 -76.8306 307° West  Level FlightAware Approximate
Thu 05:19:00 PM 36.8761 -76.5733 315° West 251 289 12,600  Level Washington Center
Thu 05:20:00 PM 36.8958 -76.6828 283° West 287 330 14,000 712 Climbing Washington Center
Thu 05:20:58 PM 36.9053 -76.7997 276° West 322 371 14,000  Level Washington Center
Thu 05:21:59 PM 36.9081 -76.9219 272° West 345 397 14,000  Level Washington Center
Thu 05:23:00 PM 36.9381 -77.0367 288° West 353 406 14,000  Level Washington Center
Thu 05:24:01 PM 37.0336 -77.0775 341° North 322 371 14,000  Level Washington Center
Thu 05:24:58 PM 37.1336 -77.0897 354° North 320 368 14,000  Level Washington Center
Thu 05:25:58 PM 37.2481 -77.1078 353° North 353 406 14,000  Level Washington Center
Thu 05:26:59 PM 37.3478 -77.1306 350° North 366 421 14,000  Level Washington Center
Thu 05:27:59 PM 37.4136 -77.2131 315° West 354 407 14,000  Level Washington Center
Thu 05:29:00 PM 37.4853 -77.2983 317° Northwest 354 407 14,000  Level Washington Center
Thu 05:29:59 PM 37.5764 -77.3475 337° Northwest 354 407 14,000  Level Washington Center
Thu 05:30:59 PM 37.6786 -77.3472 360° North 343 395 14,000  Level Washington Center
Thu 05:32:00 PM 37.7789 -77.3469 360° North 349 402 14,000  Level Washington Center
Thu 05:33:00 PM 37.8831 -77.3467 360° North 355 409 14,000  Level Washington Center
Thu 05:34:00 PM 37.9853 -77.3517 358° North 362 417 14,000 -356 Level Washington Center
Thu 05:34:58 PM 38.0831 -77.3539 359° North 356 410 13,300 -1,311 Descending Washington Center
Thu 05:35:59 PM 38.1792 -77.3536 360° North 351 404 11,400 -1,623 Descending Washington Center
Thu 05:37:00 PM 38.2708 -77.3531 360° North 339 390 10,000 -1,311 Descending Washington Center
Thu 05:37:58 PM 38.3414 -77.3706 349° North 299 344 8,800 -1,475 Descending Washington Center
Thu 05:38:58 PM 38.4033 -77.4197 328° Northwest 265 305 7,100 -893 Descending Washington Center
Thu 05:39:59 PM 38.4672 -77.4639 North 259 298 7,000 -49 Descending Washington Center
Thu 05:40:00 PM 38.5064 -77.4273 North  Level Estimated
Thu 05:41:00 PM 38.5464 -77.4683 357° North 259 298 7,000  Level Washington Center
Thu 05:41:59 PM 38.6214 -77.4678 360° North 264 304 6,800 -841 Descending Washington Center
Thu 05:42:47 PM 38.6833 -77.4667 North 264 304 5,500 -1,500 Descending Potomac TRACON
Thu 05:43:47 PM 38.7667 -77.4667 360° North 251 289 4,100 -1,400 Descending Potomac TRACON

Login

Don't have an account? Register now (free) for customized features, flight alerts, and more!